Time;durP1;ratioP1;P1;durP2;ratioP2;P2;SDS_P1;SDS_P2;PMS_P1;PMS_P2;Temp;Humidity;BMP_temperature;BMP_pressure;BME280_temperature;BME280_humidity;BME280_pressure;Samples;Min_cycle;Max_cycle;Signal;HPM_P1;HPM_P2
2023/08/10 00:00:37;;;;;;;3.40;1.60;;;;;;;;;;107379;1249;62038;-80
2023/08/10 00:03:23;;;;;;;4.20;2.20;;;;;;;;;;107346;1249;62017;-80
2023/08/10 00:05:49;;;;;;;3.40;1.90;;;;;;;;;;107424;1254;62128;-80
2023/08/10 00:08:16;;;;;;;9.50;2.80;;;;;;;;;;107367;1253;62131;-80
2023/08/10 00:10:42;;;;;;;4.50;2.20;;;;;;;;;;107325;1250;62163;-80
2023/08/10 00:13:09;;;;;;;6.50;2.10;;;;;;;;;;107420;1250;62135;-81
2023/08/10 00:15:36;;;;;;;3.20;2.30;;;;;;;;;;107310;1249;62113;-80
2023/08/10 00:18:04;;;;;;;6.30;3.30;;;;;;;;;;107346;1249;62147;-80
2023/08/10 00:20:30;;;;;;;5.10;3.40;;;;;;;;;;107394;1250;62135;-80
2023/08/10 00:22:57;;;;;;;3.90;2.40;;;;;;;;;;107418;1250;62581;-80
2023/08/10 00:25:23;;;;;;;3.70;1.90;;;;;;;;;;107362;1250;62026;-80
2023/08/10 00:27:49;;;;;;;3.50;2.10;;;;;;;;;;107391;1250;62198;-80
2023/08/10 00:30:16;;;;;;;3.30;2.00;;;;;;;;;;107363;1251;62055;-80
2023/08/10 00:32:42;;;;;;;4.10;1.80;;;;;;;;;;107383;1252;62160;-80
2023/08/10 00:35:09;;;;;;;3.00;1.90;;;;;;;;;;107338;1251;60749;-81
2023/08/10 00:37:36;;;;;;;4.80;1.80;;;;;;;;;;107392;1251;62030;-80
2023/08/10 00:40:02;;;;;;;4.20;2.00;;;;;;;;;;107303;1251;61965;-81
2023/08/10 00:42:29;;;;;;;4.90;2.00;;;;;;;;;;107354;1250;62900;-81
2023/08/10 00:44:55;;;;;;;4.50;1.90;;;;;;;;;;107377;1250;61981;-80
2023/08/10 00:47:21;;;;;;;3.70;2.10;;;;;;;;;;107422;1253;62074;-80
2023/08/10 00:49:48;;;;;;;2.90;2.00;;;;;;;;;;107310;1249;62139;-80
2023/08/10 00:52:14;;;;;;;3.20;2.30;;;;;;;;;;107303;1250;62157;-80
2023/08/10 00:54:41;;;;;;;3.40;2.00;;;;;;;;;;107341;1250;62141;-80
2023/08/10 00:57:07;;;;;;;4.00;2.40;;;;;;;;;;107340;1250;62140;-80
2023/08/10 00:59:33;;;;;;;3.40;2.40;;;;;;;;;;107392;1250;62156;-80
2023/08/10 01:02:00;;;;;;;3.10;1.90;;;;;;;;;;107380;1254;62174;-80
2023/08/10 01:04:26;;;;;;;7.20;1.90;;;;;;;;;;107317;1250;62186;-80
2023/08/10 01:07:03;;;;;;;3.90;2.00;;;;;;;;;;107383;1250;62064;-80
2023/08/10 01:09:34;;;;;;;3.10;1.70;;;;;;;;;;107405;1253;62019;-80
2023/08/10 01:12:19;;;;;;;3.50;2.10;;;;;;;;;;107367;1251;61958;-80
2023/08/10 01:14:55;;;;;;;3.30;1.90;;;;;;;;;;107361;1249;62029;-80
2023/08/10 01:17:23;;;;;;;3.00;2.20;;;;;;;;;;107345;1250;60001;-80
2023/08/10 01:19:49;;;;;;;2.70;2.00;;;;;;;;;;107349;1254;61948;-80
2023/08/10 01:22:16;;;;;;;2.40;1.70;;;;;;;;;;107340;1249;62094;-80
2023/08/10 01:24:43;;;;;;;4.90;2.00;;;;;;;;;;107428;1249;62119;-81
2023/08/10 01:27:10;;;;;;;4.60;2.00;;;;;;;;;;107369;1251;62032;-80
2023/08/10 01:29:36;;;;;;;10.70;2.00;;;;;;;;;;107328;1252;62106;-80
2023/08/10 01:32:02;;;;;;;3.30;1.80;;;;;;;;;;107351;1251;62026;-81
2023/08/10 01:34:29;;;;;;;5.70;2.10;;;;;;;;;;107249;1251;62023;-81
2023/08/10 01:36:55;;;;;;;2.50;1.90;;;;;;;;;;107384;1252;63211;-80
2023/08/10 01:39:22;;;;;;;2.90;1.90;;;;;;;;;;107348;1251;62138;-80
2023/08/10 01:41:48;;;;;;;4.30;1.90;;;;;;;;;;107313;1249;61756;-80
2023/08/10 01:44:14;;;;;;;3.30;2.10;;;;;;;;;;107412;1250;62147;-80
2023/08/10 01:46:41;;;;;;;3.90;2.40;;;;;;;;;;107377;1253;62055;-80
2023/08/10 01:49:08;;;;;;;2.00;1.50;;;;;;;;;;107446;1251;62122;-80
2023/08/10 01:51:34;;;;;;;3.60;2.10;;;;;;;;;;107395;1250;62055;-80
2023/08/10 01:54:03;;;;;;;3.80;1.90;;;;;;;;;;107381;1250;62096;-80
2023/08/10 01:56:30;;;;;;;4.00;2.10;;;;;;;;;;107648;1249;62061;-80
2023/08/10 01:58:56;;;;;;;4.00;2.30;;;;;;;;;;107416;1249;62057;-80
2023/08/10 02:01:22;;;;;;;5.00;2.50;;;;;;;;;;107338;1253;62154;-80
2023/08/10 02:03:49;;;;;;;4.30;1.80;;;;;;;;;;107374;1249;62131;-80
2023/08/10 02:06:15;;;;;;;2.60;1.80;;;;;;;;;;107361;1250;62064;-80
2023/08/10 02:08:42;;;;;;;4.50;2.20;;;;;;;;;;107514;1253;62022;-82
2023/08/10 02:11:08;;;;;;;2.90;2.30;;;;;;;;;;107419;1250;62141;-80
2023/08/10 02:13:34;;;;;;;2.60;1.80;;;;;;;;;;107421;1250;62198;-80
2023/08/10 02:16:01;;;;;;;3.30;1.90;;;;;;;;;;107402;1249;62044;-80
2023/08/10 02:18:27;;;;;;;5.30;2.10;;;;;;;;;;107407;1250;61959;-80
2023/08/10 02:20:54;;;;;;;3.20;2.20;;;;;;;;;;107426;1249;62003;-80
2023/08/10 02:23:20;;;;;;;2.40;1.90;;;;;;;;;;107369;1249;62121;-80
2023/08/10 02:25:47;;;;;;;4.50;2.40;;;;;;;;;;107410;1250;62642;-80
2023/08/10 02:28:13;;;;;;;5.10;2.40;;;;;;;;;;107422;1254;62073;-80
2023/08/10 02:30:40;;;;;;;5.40;2.50;;;;;;;;;;107312;1254;62073;-80
2023/08/10 02:33:06;;;;;;;7.90;3.20;;;;;;;;;;107379;1249;61988;-80
2023/08/10 02:35:33;;;;;;;5.20;2.50;;;;;;;;;;107384;1250;62147;-80
2023/08/10 02:37:59;;;;;;;4.90;2.00;;;;;;;;;;107365;1254;62044;-80
2023/08/10 02:40:25;;;;;;;4.30;2.30;;;;;;;;;;107363;1249;62062;-80
2023/08/10 02:42:52;;;;;;;3.10;2.10;;;;;;;;;;107411;1250;62021;-80
2023/08/10 02:45:18;;;;;;;3.10;2.00;;;;;;;;;;107381;1249;62074;-80
2023/08/10 02:47:45;;;;;;;3.10;2.10;;;;;;;;;;107330;1249;62446;-80
2023/08/10 02:50:11;;;;;;;4.90;2.50;;;;;;;;;;107432;1254;62209;-80
2023/08/10 02:52:38;;;;;;;3.30;2.20;;;;;;;;;;107377;1249;62164;-80
2023/08/10 02:55:04;;;;;;;4.00;2.40;;;;;;;;;;107380;1250;62157;-80
2023/08/10 02:57:31;;;;;;;3.40;2.70;;;;;;;;;;107333;1249;62070;-80
2023/08/10 02:59:57;;;;;;;4.40;2.60;;;;;;;;;;107314;1254;62028;-80
2023/08/10 03:02:24;;;;;;;6.10;3.70;;;;;;;;;;107319;1249;62078;-80
2023/08/10 03:04:51;;;;;;;11.50;5.10;;;;;;;;;;107387;1249;62070;-80
2023/08/10 03:07:17;;;;;;;13.30;6.60;;;;;;;;;;107341;1249;62080;-80
2023/08/10 03:09:44;;;;;;;13.40;7.80;;;;;;;;;;107348;1249;62039;-80
2023/08/10 03:12:10;;;;;;;12.00;6.80;;;;;;;;;;107325;1250;62037;-80
2023/08/10 03:14:37;;;;;;;9.80;5.20;;;;;;;;;;107466;1249;61927;-80
2023/08/10 03:17:04;;;;;;;10.70;6.90;;;;;;;;;;107320;1249;61948;-80
2023/08/10 03:19:30;;;;;;;9.60;5.90;;;;;;;;;;107341;1254;62007;-80
2023/08/10 03:21:56;;;;;;;11.20;6.30;;;;;;;;;;107353;1249;62067;-80
2023/08/10 03:24:23;;;;;;;13.00;5.70;;;;;;;;;;107363;1249;62170;-80
2023/08/10 03:26:49;;;;;;;11.00;6.40;;;;;;;;;;107341;1251;61995;-80
2023/08/10 03:29:16;;;;;;;11.20;5.10;;;;;;;;;;107316;1254;62036;-80
2023/08/10 03:31:42;;;;;;;10.70;4.30;;;;;;;;;;107274;1252;62144;-80
2023/08/10 03:34:08;;;;;;;10.20;3.70;;;;;;;;;;107454;1255;62148;-80
2023/08/10 03:36:35;;;;;;;11.80;3.80;;;;;;;;;;107298;1254;61448;-80
2023/08/10 03:39:01;;;;;;;8.10;3.80;;;;;;;;;;107313;1252;62132;-80
2023/08/10 03:41:28;;;;;;;8.50;3.60;;;;;;;;;;107281;1252;62167;-80
2023/08/10 03:43:54;;;;;;;5.60;3.30;;;;;;;;;;107366;1249;62060;-80
2023/08/10 03:46:21;;;;;;;7.30;4.40;;;;;;;;;;107359;1250;62038;-80
2023/08/10 03:48:47;;;;;;;5.10;3.70;;;;;;;;;;107341;1255;62051;-80
2023/08/10 03:51:14;;;;;;;5.30;3.40;;;;;;;;;;107380;1254;62096;-80
2023/08/10 03:53:41;;;;;;;8.00;3.30;;;;;;;;;;107313;1254;60713;-80
2023/08/10 03:56:07;;;;;;;5.50;3.50;;;;;;;;;;107351;1249;62080;-80
2023/08/10 03:58:33;;;;;;;5.70;3.50;;;;;;;;;;107350;1254;62143;-80
2023/08/10 04:01:02;;;;;;;5.70;3.20;;;;;;;;;;107336;1250;62104;-81
2023/08/10 04:03:28;;;;;;;5.80;3.70;;;;;;;;;;107387;1249;61733;-80
2023/08/10 04:05:55;;;;;;;5.60;3.30;;;;;;;;;;107347;1249;62026;-80
2023/08/10 04:08:21;;;;;;;4.60;3.60;;;;;;;;;;107366;1254;62059;-80
2023/08/10 04:10:48;;;;;;;4.90;3.80;;;;;;;;;;107310;1254;62025;-81
2023/08/10 04:13:14;;;;;;;4.40;3.20;;;;;;;;;;107475;1250;61093;-81
2023/08/10 04:15:40;;;;;;;3.80;3.20;;;;;;;;;;107362;1249;62032;-81
2023/08/10 04:18:07;;;;;;;3.60;2.80;;;;;;;;;;107317;1255;61945;-80
2023/08/10 04:20:33;;;;;;;5.30;3.00;;;;;;;;;;107341;1251;62074;-80
2023/08/10 04:23:00;;;;;;;3.40;2.70;;;;;;;;;;107349;1249;62076;-80
2023/08/10 04:25:26;;;;;;;9.70;3.90;;;;;;;;;;107361;1254;61921;-80
2023/08/10 04:27:53;;;;;;;4.80;3.30;;;;;;;;;;107373;1250;62233;-80
2023/08/10 04:30:19;;;;;;;7.10;3.60;;;;;;;;;;107309;1251;62094;-80
2023/08/10 04:32:46;;;;;;;7.80;3.60;;;;;;;;;;107328;1251;62028;-80
2023/08/10 04:35:12;;;;;;;4.20;3.20;;;;;;;;;;107291;1252;62096;-80
2023/08/10 04:37:39;;;;;;;6.40;4.00;;;;;;;;;;107366;1253;62064;-80
2023/08/10 04:40:09;;;;;;;6.00;3.70;;;;;;;;;;107323;1251;62093;-80
2023/08/10 04:42:38;;;;;;;5.40;4.30;;;;;;;;;;107385;1249;62068;-80
2023/08/10 04:45:05;;;;;;;7.70;4.10;;;;;;;;;;107317;1250;62151;-80
2023/08/10 04:47:31;;;;;;;6.90;4.00;;;;;;;;;;107412;1251;62148;-81
2023/08/10 04:49:58;;;;;;;6.20;4.40;;;;;;;;;;107284;1249;61917;-81
2023/08/10 04:52:24;;;;;;;5.10;3.90;;;;;;;;;;107364;1249;62263;-80
2023/08/10 04:54:50;;;;;;;6.70;3.60;;;;;;;;;;107327;1250;62029;-80
2023/08/10 04:57:17;;;;;;;5.20;3.50;;;;;;;;;;107437;1249;62143;-81
2023/08/10 04:59:43;;;;;;;3.90;3.00;;;;;;;;;;107325;1250;62127;-80
2023/08/10 05:02:10;;;;;;;5.50;3.20;;;;;;;;;;107443;1253;62146;-80
2023/08/10 05:04:36;;;;;;;3.90;3.50;;;;;;;;;;107428;1250;62032;-80
2023/08/10 05:07:02;;;;;;;7.70;4.50;;;;;;;;;;107387;1249;62226;-81
2023/08/10 05:09:29;;;;;;;4.00;3.40;;;;;;;;;;107333;1254;63191;-80
2023/08/10 05:11:55;;;;;;;5.00;3.20;;;;;;;;;;107337;1249;62055;-80
2023/08/10 05:14:22;;;;;;;6.40;3.80;;;;;;;;;;107304;1253;62486;-81
2023/08/10 05:16:48;;;;;;;4.90;3.10;;;;;;;;;;107442;1253;62152;-80
2023/08/10 05:19:15;;;;;;;4.00;2.70;;;;;;;;;;107327;1251;61989;-80
2023/08/10 05:21:41;;;;;;;6.20;3.00;;;;;;;;;;107341;1250;62139;-80
2023/08/10 05:24:07;;;;;;;3.50;2.70;;;;;;;;;;107665;1250;62063;-80
2023/08/10 05:26:34;;;;;;;3.80;3.20;;;;;;;;;;107757;1250;61125;-80
2023/08/10 05:29:00;;;;;;;5.30;2.90;;;;;;;;;;107690;1250;62146;-80
2023/08/10 05:31:27;;;;;;;5.70;2.60;;;;;;;;;;107660;1249;62162;-80
2023/08/10 05:33:53;;;;;;;6.30;3.30;;;;;;;;;;107567;1253;62030;-80
2023/08/10 05:36:20;;;;;;;4.50;2.80;;;;;;;;;;107477;1251;62019;-80
2023/08/10 05:38:46;;;;;;;4.90;2.30;;;;;;;;;;107384;1249;62039;-80
2023/08/10 05:41:13;;;;;;;5.20;2.30;;;;;;;;;;107372;1253;62167;-80
2023/08/10 05:43:39;;;;;;;5.20;2.30;;;;;;;;;;107372;1250;62036;-80
2023/08/10 05:46:06;;;;;;;6.90;2.90;;;;;;;;;;107405;1249;62076;-80
2023/08/10 05:48:33;;;;;;;7.80;4.30;;;;;;;;;;107382;1250;62185;-80
2023/08/10 05:50:59;;;;;;;3.40;2.50;;;;;;;;;;107396;1250;61949;-80
2023/08/10 05:53:26;;;;;;;11.50;3.20;;;;;;;;;;107387;1254;62122;-80
2023/08/10 05:55:52;;;;;;;3.70;2.70;;;;;;;;;;107349;1250;62028;-80
2023/08/10 05:58:19;;;;;;;3.70;2.70;;;;;;;;;;107415;1250;62057;-80
2023/08/10 06:00:45;;;;;;;6.70;2.10;;;;;;;;;;107471;1250;62010;-80
2023/08/10 06:03:12;;;;;;;5.70;3.00;;;;;;;;;;107414;1250;62029;-80
2023/08/10 06:05:38;;;;;;;9.90;5.40;;;;;;;;;;107389;1254;62141;-80
2023/08/10 06:08:06;;;;;;;5.40;3.40;;;;;;;;;;107527;1249;62147;-80
2023/08/10 06:10:33;;;;;;;5.40;3.10;;;;;;;;;;107370;1253;62083;-81
2023/08/10 06:12:59;;;;;;;6.30;2.90;;;;;;;;;;107435;1254;60346;-80
2023/08/10 06:15:25;;;;;;;5.20;3.70;;;;;;;;;;107576;1249;61951;-80
2023/08/10 06:17:52;;;;;;;5.20;2.70;;;;;;;;;;107614;1250;62058;-81
2023/08/10 06:20:21;;;;;;;9.60;3.40;;;;;;;;;;107396;1250;61953;-80
2023/08/10 06:22:48;;;;;;;6.30;3.10;;;;;;;;;;107550;1250;61958;-80
2023/08/10 06:25:14;;;;;;;5.10;3.80;;;;;;;;;;107497;1250;62130;-80
2023/08/10 06:27:41;;;;;;;8.90;3.10;;;;;;;;;;107399;1254;61960;-81
2023/08/10 06:30:08;;;;;;;5.10;3.30;;;;;;;;;;107551;1255;60759;-81
2023/08/10 06:32:35;;;;;;;4.70;3.30;;;;;;;;;;107449;1249;62381;-80
2023/08/10 06:35:03;;;;;;;7.70;4.80;;;;;;;;;;107461;1253;62002;-80
2023/08/10 06:37:30;;;;;;;6.10;4.80;;;;;;;;;;107811;1250;60448;-81
2023/08/10 06:39:56;;;;;;;13.30;3.40;;;;;;;;;;107695;1249;60302;-81
2023/08/10 06:42:23;;;;;;;15.90;4.60;;;;;;;;;;108053;1253;61951;-81
2023/08/10 06:44:49;;;;;;;7.20;3.10;;;;;;;;;;108359;1249;61974;-81
2023/08/10 06:47:15;;;;;;;5.60;3.70;;;;;;;;;;109855;1252;59841;-81
2023/08/10 06:49:42;;;;;;;7.10;4.00;;;;;;;;;;109818;1249;59729;-81
2023/08/10 06:52:09;;;;;;;6.80;4.00;;;;;;;;;;109867;1249;59826;-81
2023/08/10 06:54:36;;;;;;;6.70;4.60;;;;;;;;;;109838;1250;60821;-81
2023/08/10 06:57:02;;;;;;;5.60;3.70;;;;;;;;;;109959;1249;59866;-81
2023/08/10 06:59:29;;;;;;;4.90;4.10;;;;;;;;;;109793;1251;59984;-81
2023/08/10 07:01:55;;;;;;;4.40;3.50;;;;;;;;;;109777;1249;60007;-81
2023/08/10 07:04:22;;;;;;;10.60;4.60;;;;;;;;;;109803;1251;59984;-81
2023/08/10 07:06:48;;;;;;;4.80;3.90;;;;;;;;;;108915;1251;62067;-81
2023/08/10 07:09:15;;;;;;;7.80;4.40;;;;;;;;;;107395;1251;169090;-81
2023/08/10 07:11:41;;;;;;;8.40;4.10;;;;;;;;;;107611;1254;62140;-81
2023/08/10 07:14:08;;;;;;;10.70;4.60;;;;;;;;;;107665;1254;62113;-81
2023/08/10 07:16:34;;;;;;;5.30;4.00;;;;;;;;;;107762;1255;62057;-81
2023/08/10 07:19:01;;;;;;;6.50;3.80;;;;;;;;;;107702;1249;62065;-81
2023/08/10 07:21:27;;;;;;;4.70;3.70;;;;;;;;;;107756;1250;62066;-81
2023/08/10 07:23:54;;;;;;;5.70;4.40;;;;;;;;;;107560;1252;62023;-81
2023/08/10 07:26:21;;;;;;;11.50;3.70;;;;;;;;;;108691;1249;60986;-81
2023/08/10 07:28:47;;;;;;;6.40;4.00;;;;;;;;;;109301;1249;60442;-81
2023/08/10 07:31:13;;;;;;;6.00;5.00;;;;;;;;;;107547;1248;62056;-81
2023/08/10 07:33:40;;;;;;;6.30;4.30;;;;;;;;;;107636;1249;62151;-81
2023/08/10 07:36:06;;;;;;;5.70;3.90;;;;;;;;;;107493;1250;60207;-81
2023/08/10 07:38:33;;;;;;;6.10;4.60;;;;;;;;;;107593;1253;62127;-81
2023/08/10 07:40:59;;;;;;;8.10;4.60;;;;;;;;;;107586;1253;62409;-81
2023/08/10 07:43:25;;;;;;;8.50;5.60;;;;;;;;;;107697;1249;62780;-81
2023/08/10 07:45:52;;;;;;;4.80;4.10;;;;;;;;;;107443;1249;62044;-81
2023/08/10 07:48:18;;;;;;;11.30;4.30;;;;;;;;;;107433;1250;62158;-81
2023/08/10 07:50:46;;;;;;;10.00;4.00;;;;;;;;;;107448;1250;61923;-80
2023/08/10 07:53:13;;;;;;;6.10;3.20;;;;;;;;;;107570;1251;61920;-81
2023/08/10 07:55:40;;;;;;;4.10;3.40;;;;;;;;;;107475;1254;62034;-81
2023/08/10 07:58:06;;;;;;;4.90;3.00;;;;;;;;;;107607;1253;61956;-81
2023/08/10 08:00:35;;;;;;;6.10;3.70;;;;;;;;;;107549;1252;62599;-81
2023/08/10 08:03:02;;;;;;;7.20;3.70;;;;;;;;;;107706;1251;62146;-81
2023/08/10 08:05:29;;;;;;;6.50;4.90;;;;;;;;;;107578;1251;61952;-80
2023/08/10 08:07:55;;;;;;;9.60;5.30;;;;;;;;;;107595;1251;62071;-81
2023/08/10 08:10:22;;;;;;;6.80;5.10;;;;;;;;;;107552;1253;62023;-80
2023/08/10 08:12:48;;;;;;;7.30;5.00;;;;;;;;;;107577;1254;62031;-80
2023/08/10 08:15:14;;;;;;;7.70;5.30;;;;;;;;;;107563;1249;62134;-80
2023/08/10 08:17:59;;;;;;;6.60;5.40;;;;;;;;;;107504;1254;60395;-80
2023/08/10 08:20:26;;;;;;;7.90;5.50;;;;;;;;;;107606;1250;61947;-81
2023/08/10 08:22:52;;;;;;;7.30;4.40;;;;;;;;;;107758;1249;62195;-81
2023/08/10 08:25:19;;;;;;;8.30;5.20;;;;;;;;;;107491;1251;62044;-81
2023/08/10 08:27:45;;;;;;;6.60;5.10;;;;;;;;;;107475;1251;62091;-81
2023/08/10 08:30:12;;;;;;;5.90;4.70;;;;;;;;;;107564;1251;62140;-81
2023/08/10 08:32:38;;;;;;;6.10;4.10;;;;;;;;;;107521;1251;61946;-81
2023/08/10 08:35:05;;;;;;;4.40;3.40;;;;;;;;;;107818;1249;62112;-81
2023/08/10 08:37:32;;;;;;;7.30;4.40;;;;;;;;;;108174;1253;61946;-81
2023/08/10 08:39:58;;;;;;;4.60;3.30;;;;;;;;;;109809;1251;61266;-82
2023/08/10 08:42:25;;;;;;;4.90;3.00;;;;;;;;;;109912;1251;59813;-82
2023/08/10 08:44:52;;;;;;;8.20;2.80;;;;;;;;;;109857;1252;59717;-82
2023/08/10 08:47:18;;;;;;;7.70;3.80;;;;;;;;;;109394;1249;62121;-82
2023/08/10 08:49:45;;;;;;;4.70;3.40;;;;;;;;;;107737;1251;62016;-81
2023/08/10 08:52:12;;;;;;;7.00;3.30;;;;;;;;;;107572;1251;62149;-81
2023/08/10 08:54:38;;;;;;;3.90;3.00;;;;;;;;;;107751;1253;62140;-82
2023/08/10 08:57:04;;;;;;;5.60;3.30;;;;;;;;;;107686;1251;62028;-82
2023/08/10 08:59:31;;;;;;;4.30;2.70;;;;;;;;;;107274;1253;62190;-81
2023/08/10 09:01:58;;;;;;;3.70;3.00;;;;;;;;;;107281;1250;62104;-81
2023/08/10 09:04:24;;;;;;;4.00;3.10;;;;;;;;;;107276;1253;61978;-81
2023/08/10 09:06:50;;;;;;;3.40;2.60;;;;;;;;;;107343;1254;62034;-82
2023/08/10 09:09:17;;;;;;;5.10;3.80;;;;;;;;;;107205;1253;62059;-81
2023/08/10 09:11:43;;;;;;;3.10;2.60;;;;;;;;;;107242;1253;62058;-81
2023/08/10 09:14:10;;;;;;;4.40;2.80;;;;;;;;;;107254;1251;62004;-81
2023/08/10 09:16:37;;;;;;;4.40;2.90;;;;;;;;;;107240;1251;62216;-81
2023/08/10 09:19:03;;;;;;;4.50;3.10;;;;;;;;;;107302;1251;61965;-81
2023/08/10 09:21:30;;;;;;;5.70;5.10;;;;;;;;;;107269;1253;62154;-81
2023/08/10 09:23:57;;;;;;;6.40;2.90;;;;;;;;;;107143;1251;62151;-81
2023/08/10 09:26:23;;;;;;;5.60;3.90;;;;;;;;;;107171;1251;62034;-81
2023/08/10 09:28:50;;;;;;;5.30;3.70;;;;;;;;;;107266;1251;62141;-81
2023/08/10 09:31:23;;;;;;;7.70;4.40;;;;;;;;;;107223;1251;61999;-81
2023/08/10 09:33:57;;;;;;;6.20;4.00;;;;;;;;;;107179;1251;62120;-81
2023/08/10 09:36:24;;;;;;;4.60;3.40;;;;;;;;;;107378;1254;62060;-81
2023/08/10 09:38:51;;;;;;;4.60;3.40;;;;;;;;;;107393;1251;62089;-81
2023/08/10 09:41:19;;;;;;;5.50;3.70;;;;;;;;;;107151;1253;62222;-81
2023/08/10 09:43:46;;;;;;;5.80;2.80;;;;;;;;;;107176;1251;61661;-81
2023/08/10 09:46:14;;;;;;;8.10;2.70;;;;;;;;;;107331;1251;61988;-81
2023/08/10 09:48:41;;;;;;;8.20;3.50;;;;;;;;;;107345;1251;62057;-82
2023/08/10 09:51:08;;;;;;;6.20;3.40;;;;;;;;;;107203;1254;61955;-82
2023/08/10 09:53:34;;;;;;;3.80;2.60;;;;;;;;;;107310;1254;62144;-82
2023/08/10 09:56:01;;;;;;;3.10;2.60;;;;;;;;;;107364;1251;61295;-82
2023/08/10 09:58:27;;;;;;;3.60;2.50;;;;;;;;;;107363;1251;61972;-82
2023/08/10 10:00:54;;;;;;;3.70;2.50;;;;;;;;;;107215;1254;62091;-82
2023/08/10 10:03:21;;;;;;;5.30;2.80;;;;;;;;;;107377;1250;62146;-82
2023/08/10 10:05:48;;;;;;;6.20;2.50;;;;;;;;;;107333;1253;62060;-82
2023/08/10 10:08:16;;;;;;;5.30;2.80;;;;;;;;;;107293;1253;61968;-82
2023/08/10 10:10:43;;;;;;;4.50;2.80;;;;;;;;;;107376;1254;62738;-82
2023/08/10 10:13:11;;;;;;;3.00;2.60;;;;;;;;;;107339;1256;62169;-82
2023/08/10 10:15:38;;;;;;;7.10;2.80;;;;;;;;;;107245;1253;62031;-82
2023/08/10 10:18:05;;;;;;;5.80;3.50;;;;;;;;;;107449;1251;62088;-82
2023/08/10 10:20:32;;;;;;;13.00;3.90;;;;;;;;;;107451;1251;62141;-81
2023/08/10 10:22:58;;;;;;;7.20;2.80;;;;;;;;;;107594;1253;62036;-82
2023/08/10 10:25:25;;;;;;;4.20;2.50;;;;;;;;;;107510;1251;62149;-82
2023/08/10 10:27:51;;;;;;;10.30;2.90;;;;;;;;;;107519;1250;61897;-81
2023/08/10 10:30:19;;;;;;;5.20;3.20;;;;;;;;;;107515;1253;62076;-82
2023/08/10 10:32:47;;;;;;;3.20;2.40;;;;;;;;;;107734;1250;62152;-82
2023/08/10 10:35:23;;;;;;;4.50;2.60;;;;;;;;;;107385;1251;61821;-83
2023/08/10 10:37:56;;;;;;;3.90;2.40;;;;;;;;;;107525;1251;62021;-83
2023/08/10 10:40:23;;;;;;;2.50;1.80;;;;;;;;;;107292;1251;62251;-84
2023/08/10 10:43:02;;;;;;;4.50;2.80;;;;;;;;;;107415;1249;60657;-82
2023/08/10 10:45:29;;;;;;;3.10;1.90;;;;;;;;;;107200;1251;62024;-83
2023/08/10 10:47:56;;;;;;;3.50;2.50;;;;;;;;;;107297;1251;62200;-83
2023/08/10 10:50:23;;;;;;;3.30;2.30;;;;;;;;;;107346;1251;62653;-83
2023/08/10 10:52:56;;;;;;;4.90;2.40;;;;;;;;;;107288;1250;62146;-83
2023/08/10 10:55:26;;;;;;;3.10;2.40;;;;;;;;;;107395;1251;62159;-83
2023/08/10 10:57:53;;;;;;;4.30;2.50;;;;;;;;;;107353;1253;62034;-83
2023/08/10 11:00:20;;;;;;;3.60;1.90;;;;;;;;;;107239;1251;62044;-83
2023/08/10 11:02:47;;;;;;;3.00;2.50;;;;;;;;;;107163;1251;62153;-83
2023/08/10 11:05:13;;;;;;;5.10;2.40;;;;;;;;;;107368;1251;61952;-83
2023/08/10 11:07:41;;;;;;;2.60;2.10;;;;;;;;;;107290;1254;62047;-83
2023/08/10 11:10:08;;;;;;;11.50;3.10;;;;;;;;;;107281;1251;61978;-83
2023/08/10 11:12:36;;;;;;;3.40;2.10;;;;;;;;;;107266;1249;62030;-83
2023/08/10 11:15:04;;;;;;;3.10;2.40;;;;;;;;;;107259;1251;60654;-83
2023/08/10 11:17:30;;;;;;;4.20;2.40;;;;;;;;;;107298;1249;61948;-83
2023/08/10 11:19:57;;;;;;;2.40;1.50;;;;;;;;;;107206;1253;62018;-83
2023/08/10 11:22:23;;;;;;;3.80;1.80;;;;;;;;;;107249;1251;62141;-83
2023/08/10 11:24:50;;;;;;;2.30;1.80;;;;;;;;;;107191;1251;62121;-83
2023/08/10 11:27:16;;;;;;;3.60;2.20;;;;;;;;;;107218;1251;62091;-83
2023/08/10 11:29:43;;;;;;;2.20;1.80;;;;;;;;;;107106;1250;62022;-83
2023/08/10 11:32:09;;;;;;;4.20;2.00;;;;;;;;;;107327;1251;62011;-83
2023/08/10 11:34:35;;;;;;;3.90;2.20;;;;;;;;;;107229;1251;62123;-82
2023/08/10 11:37:02;;;;;;;2.20;1.80;;;;;;;;;;107387;1251;62140;-82
2023/08/10 11:39:30;;;;;;;2.90;2.10;;;;;;;;;;107215;1250;62018;-82
2023/08/10 11:41:56;;;;;;;5.60;2.40;;;;;;;;;;107186;1254;61942;-82
2023/08/10 11:44:24;;;;;;;6.10;2.10;;;;;;;;;;107378;1249;62076;-82
2023/08/10 11:46:50;;;;;;;2.60;1.90;;;;;;;;;;107261;1252;61931;-82
2023/08/10 11:49:16;;;;;;;1.80;1.50;;;;;;;;;;107275;1251;61965;-82
2023/08/10 11:51:43;;;;;;;2.60;1.90;;;;;;;;;;107305;1250;62064;-82
2023/08/10 11:54:09;;;;;;;5.60;1.70;;;;;;;;;;107272;1254;62140;-82
2023/08/10 11:56:44;;;;;;;3.00;1.80;;;;;;;;;;107351;1251;61944;-82
2023/08/10 11:59:11;;;;;;;3.00;1.60;;;;;;;;;;107372;1251;62041;-82
2023/08/10 12:01:45;;;;;;;2.50;2.00;;;;;;;;;;107201;1251;61952;-82
2023/08/10 12:04:11;;;;;;;3.30;1.80;;;;;;;;;;107760;1249;62137;-82
2023/08/10 12:06:39;;;;;;;2.10;1.60;;;;;;;;;;107297;1251;62153;-82
2023/08/10 12:09:10;;;;;;;5.50;1.90;;;;;;;;;;107138;1254;62096;-82
2023/08/10 12:11:37;;;;;;;3.20;2.00;;;;;;;;;;107228;1251;59961;-82
2023/08/10 12:14:03;;;;;;;4.50;2.00;;;;;;;;;;107203;1251;61946;-82
2023/08/10 12:16:30;;;;;;;3.10;2.30;;;;;;;;;;107174;1254;62060;-82
2023/08/10 12:18:56;;;;;;;2.90;2.00;;;;;;;;;;107281;1250;62262;-82
2023/08/10 12:21:23;;;;;;;6.40;4.90;;;;;;;;;;107662;1253;61940;-82
2023/08/10 12:23:50;;;;;;;7.40;2.20;;;;;;;;;;107412;1251;61965;-82
2023/08/10 12:26:16;;;;;;;4.20;2.40;;;;;;;;;;107168;1254;62066;-82
2023/08/10 12:28:43;;;;;;;6.70;2.30;;;;;;;;;;107249;1253;62037;-82
2023/08/10 12:31:09;;;;;;;6.20;3.10;;;;;;;;;;107179;1253;62078;-82
2023/08/10 12:33:38;;;;;;;4.90;2.30;;;;;;;;;;107476;1250;62066;-83
2023/08/10 12:36:04;;;;;;;3.30;2.10;;;;;;;;;;107123;1251;61139;-83
2023/08/10 12:38:31;;;;;;;12.70;3.10;;;;;;;;;;107123;1249;62184;-83
2023/08/10 12:40:57;;;;;;;3.70;2.90;;;;;;;;;;107108;1250;62082;-83
2023/08/10 12:43:23;;;;;;;2.20;1.80;;;;;;;;;;107336;1251;62142;-83
2023/08/10 12:45:50;;;;;;;2.30;1.80;;;;;;;;;;107631;1250;60213;-83
2023/08/10 12:48:16;;;;;;;3.20;2.50;;;;;;;;;;107626;1253;61998;-83
2023/08/10 12:50:43;;;;;;;1.70;1.30;;;;;;;;;;107502;1250;62197;-82
2023/08/10 12:53:10;;;;;;;2.90;2.00;;;;;;;;;;107596;1250;61894;-83
2023/08/10 12:55:37;;;;;;;5.40;1.70;;;;;;;;;;107371;1250;62017;-83
2023/08/10 12:58:03;;;;;;;2.80;1.70;;;;;;;;;;107335;1253;62062;-83
2023/08/10 13:00:30;;;;;;;4.40;2.60;;;;;;;;;;107298;1250;62004;-83
2023/08/10 13:02:57;;;;;;;3.30;2.50;;;;;;;;;;107544;1251;62033;-83
2023/08/10 13:05:23;;;;;;;3.00;2.00;;;;;;;;;;107206;1251;62072;-83
2023/08/10 13:07:50;;;;;;;4.20;3.10;;;;;;;;;;107410;1249;62027;-82
2023/08/10 13:10:16;;;;;;;2.30;2.00;;;;;;;;;;107635;1249;62156;-82
2023/08/10 13:12:45;;;;;;;4.20;2.70;;;;;;;;;;107427;1251;62056;-83
2023/08/10 13:15:12;;;;;;;3.40;2.70;;;;;;;;;;107379;1250;61935;-82
2023/08/10 13:17:38;;;;;;;2.70;1.90;;;;;;;;;;107257;1250;61948;-83
2023/08/10 13:20:05;;;;;;;3.70;2.00;;;;;;;;;;107258;1250;62072;-82
2023/08/10 13:22:32;;;;;;;3.60;2.60;;;;;;;;;;107775;1251;62053;-82
2023/08/10 13:24:59;;;;;;;2.40;1.60;;;;;;;;;;107203;1250;62101;-82
2023/08/10 13:27:26;;;;;;;3.20;1.90;;;;;;;;;;107201;1251;62227;-82
2023/08/10 13:29:53;;;;;;;4.00;2.20;;;;;;;;;;107207;1250;61969;-82
2023/08/10 13:32:19;;;;;;;2.30;1.80;;;;;;;;;;107109;1250;62066;-83
2023/08/10 13:34:46;;;;;;;3.20;1.90;;;;;;;;;;107098;1250;62148;-83
2023/08/10 13:37:12;;;;;;;2.80;1.90;;;;;;;;;;107181;1250;62024;-83
2023/08/10 13:39:39;;;;;;;1.80;1.10;;;;;;;;;;107163;1249;64079;-83
2023/08/10 13:42:06;;;;;;;2.30;1.90;;;;;;;;;;107142;1251;61981;-84
2023/08/10 13:44:32;;;;;;;3.90;2.40;;;;;;;;;;107206;1250;61941;-83
2023/08/10 13:46:59;;;;;;;7.90;3.60;;;;;;;;;;107149;1248;62069;-83
2023/08/10 13:49:25;;;;;;;3.80;1.90;;;;;;;;;;107172;1253;62085;-83
2023/08/10 13:51:52;;;;;;;5.60;1.80;;;;;;;;;;107209;1250;61954;-83
2023/08/10 13:54:18;;;;;;;2.10;1.60;;;;;;;;;;107206;1251;62077;-83
2023/08/10 13:56:55;;;;;;;1.80;1.50;;;;;;;;;;107405;1249;62045;-83
2023/08/10 13:59:21;;;;;;;2.30;1.60;;;;;;;;;;107497;1250;62022;-83
2023/08/10 14:01:48;;;;;;;3.00;1.70;;;;;;;;;;107338;1251;62149;-83
2023/08/10 14:04:14;;;;;;;3.70;1.80;;;;;;;;;;107301;1250;62028;-83
2023/08/10 14:06:41;;;;;;;2.50;1.80;;;;;;;;;;107338;1251;62132;-83
2023/08/10 14:09:08;;;;;;;2.80;1.80;;;;;;;;;;107083;1254;62168;-83
2023/08/10 14:11:35;;;;;;;;;;;;;;;;;;107068;1251;62057;-83
2023/08/10 14:14:01;;;;;;;1.80;1.50;;;;;;;;;;107051;1253;62171;-83
2023/08/10 14:16:27;;;;;;;3.10;1.70;;;;;;;;;;107050;1253;62155;-82
2023/08/10 14:18:54;;;;;;;2.70;1.80;;;;;;;;;;107207;1251;62606;-82
2023/08/10 14:21:21;;;;;;;2.40;1.30;;;;;;;;;;107234;1249;62144;-82
2023/08/10 14:23:47;;;;;;;2.20;1.60;;;;;;;;;;107229;1249;61937;-82
2023/08/10 14:26:14;;;;;;;3.30;2.20;;;;;;;;;;107258;1253;62040;-82